createdAt,value
2018-08-17T00:09:47.838Z,15.10
2018-08-17T00:19:49.110Z,15.00
2018-08-17T00:29:50.366Z,14.90
2018-08-17T00:39:52.382Z,14.80
2018-08-17T00:49:54.409Z,14.80
2018-08-17T00:59:55.652Z,14.80
2018-08-17T01:09:56.902Z,14.70
2018-08-17T01:19:58.171Z,14.50
2018-08-17T01:30:00.190Z,14.40
2018-08-17T01:40:01.560Z,14.40
2018-08-17T01:50:02.834Z,14.30
2018-08-17T02:00:04.120Z,14.30
2018-08-17T02:10:05.394Z,14.30
2018-08-17T02:20:06.656Z,14.30
2018-08-17T02:30:07.930Z,14.30
2018-08-17T02:40:09.207Z,14.20
2018-08-17T02:50:10.458Z,14.10
2018-08-17T03:00:11.726Z,14.00
2018-08-17T03:10:12.976Z,14.00
2018-08-17T03:20:14.221Z,14.00
2018-08-17T03:30:16.244Z,13.80
2018-08-17T03:40:18.315Z,13.80
2018-08-17T03:50:19.601Z,13.80
2018-08-17T04:00:20.891Z,13.80
2018-08-17T04:10:22.181Z,13.90
2018-08-17T04:20:23.445Z,13.80
2018-08-17T04:30:24.717Z,13.90
2018-08-17T04:40:25.986Z,13.90
2018-08-17T04:50:27.226Z,14.10
2018-08-17T05:00:29.526Z,14.30
2018-08-17T05:10:30.776Z,14.60
2018-08-17T05:20:32.042Z,14.80
2018-08-17T05:30:34.072Z,15.50
2018-08-17T05:40:35.635Z,15.50
2018-08-17T05:50:37.916Z,16.00
2018-08-17T06:00:39.578Z,16.40
2018-08-17T06:10:40.969Z,16.90
2018-08-17T06:20:42.566Z,17.40
2018-08-17T06:30:44.432Z,17.80
2018-08-17T06:40:45.908Z,18.40
2018-08-17T06:50:47.223Z,18.90
2018-08-17T07:00:48.402Z,19.50
2018-08-17T07:10:49.653Z,20.00
2018-08-17T07:20:52.039Z,20.60
2018-08-17T07:30:53.319Z,21.20
2018-08-17T07:40:54.583Z,21.60
2018-08-17T07:50:55.904Z,22.30
2018-08-17T08:00:57.178Z,23.10
2018-08-17T08:10:58.488Z,24.30
2018-08-17T08:20:59.705Z,26.80
2018-08-17T08:31:00.949Z,26.90
2018-08-17T08:41:02.219Z,28.40
2018-08-17T08:51:04.237Z,34.60
2018-08-17T09:01:05.490Z,34.40
2018-08-17T09:11:06.753Z,37.70
2018-08-17T09:21:08.031Z,37.90
2018-08-17T09:31:09.296Z,39.70
2018-08-17T09:41:11.327Z,38.80
2018-08-17T09:51:12.616Z,38.70
2018-08-17T10:01:13.866Z,39.00
2018-08-17T10:11:15.145Z,39.80
2018-08-17T10:21:16.556Z,38.40
2018-08-17T10:31:18.462Z,38.00
2018-08-17T10:41:19.707Z,38.00
2018-08-17T10:51:21.720Z,30.40
2018-08-17T11:01:23.731Z,29.00
2018-08-17T11:11:25.754Z,29.20
2018-08-17T11:21:27.825Z,28.80
2018-08-17T11:31:29.088Z,28.80
2018-08-17T11:41:30.510Z,28.90
2018-08-17T11:51:31.672Z,28.30
2018-08-17T12:01:33.741Z,28.20
2018-08-17T12:11:35.001Z,28.10
2018-08-17T12:21:36.279Z,28.40
2018-08-17T12:31:37.542Z,28.50
2018-08-17T12:41:39.544Z,28.30
2018-08-17T12:51:40.807Z,28.20
2018-08-17T13:01:42.099Z,28.10
2018-08-17T13:11:43.380Z,28.00
2018-08-17T13:21:44.652Z,27.90
2018-08-17T13:31:46.678Z,27.70
2018-08-17T13:41:47.938Z,27.70
2018-08-17T13:51:49.199Z,27.50
2018-08-17T14:01:50.459Z,27.50
2018-08-17T14:11:51.737Z,27.30
2018-08-17T14:21:53.747Z,27.20
2018-08-17T14:31:55.758Z,27.20
2018-08-17T14:41:57.775Z,27.30
2018-08-17T14:51:59.771Z,27.40
2018-08-17T15:02:01.015Z,27.30
2018-08-17T15:12:02.283Z,27.20
2018-08-17T15:22:04.299Z,27.00
2018-08-17T15:32:06.441Z,26.80
2018-08-17T15:42:07.718Z,26.70
2018-08-17T15:52:09.039Z,26.60
2018-08-17T16:02:11.031Z,26.50
2018-08-17T16:12:12.293Z,26.50
2018-08-17T16:22:13.581Z,26.50
2018-08-17T16:32:14.827Z,26.30
2018-08-17T16:42:16.064Z,26.10
2018-08-17T16:52:17.315Z,25.80
2018-08-17T17:02:18.567Z,25.70
2018-08-17T17:12:19.793Z,25.70
2018-08-17T17:22:21.068Z,25.40
2018-08-17T17:32:22.319Z,25.30
2018-08-17T17:42:23.587Z,25.00
2018-08-17T17:52:24.881Z,24.30
2018-08-17T18:02:26.912Z,22.90
2018-08-17T18:12:28.957Z,22.40
2018-08-17T18:22:30.216Z,22.30
2018-08-17T18:32:31.453Z,21.90
2018-08-17T18:42:32.700Z,21.60
2018-08-17T18:52:34.828Z,21.00
2018-08-17T19:02:36.003Z,20.90
2018-08-17T19:12:37.270Z,20.70
2018-08-17T19:22:38.534Z,20.50
2018-08-17T19:32:39.825Z,20.30
2018-08-17T19:42:41.099Z,20.10
2018-08-17T19:52:42.401Z,19.70
2018-08-17T20:02:43.652Z,19.60
2018-08-17T20:12:44.890Z,19.50
2018-08-17T20:22:46.146Z,19.40
2018-08-17T20:32:47.402Z,19.20
2018-08-17T20:42:48.775Z,19.10
2018-08-17T20:52:50.026Z,18.90
2018-08-17T21:02:51.324Z,18.80
2018-08-17T21:12:53.372Z,18.60
2018-08-17T21:22:54.661Z,18.60
2018-08-17T21:32:56.018Z,18.50
2018-08-17T21:42:57.321Z,18.30
2018-08-17T21:52:58.618Z,18.30
2018-08-17T22:02:59.862Z,18.20
2018-08-17T22:13:01.100Z,18.10
2018-08-17T22:23:02.380Z,18.00
2018-08-17T22:33:03.672Z,18.00
2018-08-17T22:43:04.907Z,17.90
2018-08-17T22:53:06.254Z,17.80
2018-08-17T23:03:08.296Z,17.60
2018-08-17T23:13:09.584Z,17.60
2018-08-17T23:23:10.889Z,17.50
2018-08-17T23:33:12.186Z,17.40
2018-08-17T23:43:13.466Z,17.40
2018-08-17T23:53:14.709Z,17.30
